createdAt,value
2023-05-09T00:00:32.368Z,101406.05
2023-05-09T00:04:51.270Z,101405.04
2023-05-09T00:08:56.377Z,101404.89
2023-05-09T00:12:59.309Z,101402.06
2023-05-09T00:17:01.806Z,101399.70
2023-05-09T00:21:03.998Z,101399.95
2023-05-09T00:25:07.383Z,101395.17
2023-05-09T00:29:09.306Z,101392.34
2023-05-09T00:33:11.413Z,101392.03
2023-05-09T00:37:13.309Z,101395.35
2023-05-09T00:41:15.307Z,101387.94
2023-05-09T00:45:18.291Z,101385.55
2023-05-09T00:49:20.528Z,101381.29
2023-05-09T00:53:29.552Z,101382.44
2023-05-09T00:57:31.424Z,101384.98
2023-05-09T01:01:33.288Z,101385.20
2023-05-09T01:05:49.509Z,101383.73
2023-05-09T01:09:55.618Z,101381.83
2023-05-09T01:14:15.520Z,101385.02
2023-05-09T01:18:39.111Z,101380.34
2023-05-09T01:23:15.821Z,101378.64
2023-05-09T01:27:59.286Z,101381.10
2023-05-09T01:32:15.982Z,101378.12
2023-05-09T01:36:20.946Z,101381.48
2023-05-09T01:40:43.035Z,101379.77
2023-05-09T01:44:55.771Z,101378.17
2023-05-09T01:48:59.253Z,101372.94
2023-05-09T01:53:03.080Z,101374.84
2023-05-09T01:57:16.556Z,101376.13
2023-05-09T02:01:23.696Z,101375.36
2023-05-09T02:05:36.974Z,101387.14
2023-05-09T02:09:44.257Z,101391.59
2023-05-09T02:13:46.234Z,101391.23
2023-05-09T02:17:48.346Z,101390.20
2023-05-09T02:21:50.314Z,101388.42
2023-05-09T02:25:53.748Z,101385.31
2023-05-09T02:30:07.534Z,101386.52
2023-05-09T02:34:11.325Z,101386.73
2023-05-09T02:38:14.367Z,101386.48
2023-05-09T02:42:21.634Z,101386.56
2023-05-09T02:46:23.624Z,101386.80
2023-05-09T02:50:27.824Z,101381.03
2023-05-09T02:54:29.989Z,101377.60
2023-05-09T02:58:31.871Z,101378.73
2023-05-09T03:02:33.938Z,101378.06
2023-05-09T03:06:36.075Z,101377.10
2023-05-09T03:10:38.024Z,101381.57
2023-05-09T03:14:40.364Z,101380.31
2023-05-09T03:18:42.800Z,101383.98
2023-05-09T03:22:44.838Z,101384.91
2023-05-09T03:26:46.932Z,101388.17
2023-05-09T03:30:50.064Z,101390.61
2023-05-09T03:34:54.919Z,101385.83
2023-05-09T03:38:57.318Z,101390.56
2023-05-09T03:42:59.581Z,101392.38
2023-05-09T03:47:01.808Z,101394.07
2023-05-09T03:51:09.254Z,101394.31
2023-05-09T03:55:18.779Z,101393.73
2023-05-09T03:59:20.798Z,101393.19
2023-05-09T04:03:34.972Z,101392.35
2023-05-09T04:07:38.834Z,101391.68
2023-05-09T04:11:40.964Z,101389.43
2023-05-09T04:15:46.460Z,101385.58
2023-05-09T04:19:48.809Z,101380.85
2023-05-09T04:23:51.319Z,101383.09
2023-05-09T04:28:00.123Z,101384.77
2023-05-09T04:32:07.994Z,101384.62
2023-05-09T04:36:10.822Z,101379.41
2023-05-09T04:40:13.354Z,101377.99
2023-05-09T04:44:22.976Z,101374.20
2023-05-09T04:48:25.092Z,101373.80
2023-05-09T04:52:27.427Z,101380.98
2023-05-09T04:56:29.797Z,101377.95
2023-05-09T05:00:37.387Z,101380.15
2023-05-09T05:04:39.836Z,101387.14
2023-05-09T05:08:42.738Z,101392.07
2023-05-09T05:12:46.061Z,101393.77
2023-05-09T05:16:50.592Z,101391.82
2023-05-09T05:20:55.262Z,101390.73
2023-05-09T05:24:58.902Z,101391.19
2023-05-09T05:29:01.642Z,101388.63
2023-05-09T05:33:04.156Z,101385.84
2023-05-09T05:37:06.451Z,101386.78
2023-05-09T05:41:12.300Z,101384.02
2023-05-09T05:45:15.565Z,101380.98
2023-05-09T05:49:21.122Z,101377.46
2023-05-09T05:53:23.125Z,101381.40
2023-05-09T05:57:27.429Z,101382.77
2023-05-09T06:01:29.984Z,101381.63
2023-05-09T06:05:34.094Z,101375.05
2023-05-09T06:09:36.225Z,101375.23
2023-05-09T06:13:38.572Z,101372.77
2023-05-09T06:17:41.122Z,101372.77
2023-05-09T06:21:44.177Z,101372.92
2023-05-09T06:25:46.031Z,101376.16
2023-05-09T06:29:48.443Z,101374.99
2023-05-09T06:33:50.590Z,101372.17
2023-05-09T06:37:52.653Z,101375.30
2023-05-09T06:41:55.229Z,101370.60
2023-05-09T06:46:03.944Z,101369.90
2023-05-09T06:50:06.550Z,101372.13
2023-05-09T06:54:08.674Z,101375.48
2023-05-09T06:58:11.892Z,101370.90
2023-05-09T07:02:14.864Z,101370.61
2023-05-09T07:06:17.151Z,101361.77
2023-05-09T07:10:19.162Z,101355.87
2023-05-09T07:14:21.087Z,101356.84
2023-05-09T07:18:23.057Z,101353.42
2023-05-09T07:22:25.022Z,101353.42
2023-05-09T07:26:26.929Z,101348.14
2023-05-09T07:30:28.841Z,101348.25
2023-05-09T07:34:30.794Z,101343.91
2023-05-09T07:38:32.640Z,101343.27
2023-05-09T07:42:34.618Z,101336.61
2023-05-09T07:46:38.074Z,101336.89
2023-05-09T07:50:39.950Z,101333.78
2023-05-09T07:54:41.832Z,101326.30
2023-05-09T07:58:43.686Z,101326.79
2023-05-09T08:02:46.086Z,101324.42
2023-05-09T08:06:48.546Z,101319.28
2023-05-09T08:10:50.469Z,101323.11
2023-05-09T08:14:52.352Z,101319.72
2023-05-09T08:18:54.512Z,101311.22
2023-05-09T08:22:56.585Z,101312.48
2023-05-09T08:26:58.468Z,101309.63
2023-05-09T08:31:00.552Z,101303.68
2023-05-09T08:35:02.508Z,101299.39
2023-05-09T08:39:04.454Z,101292.02
2023-05-09T08:43:07.387Z,101292.61
2023-05-09T08:47:10.189Z,101295.52
2023-05-09T08:51:13.352Z,101290.14
2023-05-09T08:55:16.013Z,101283.48
2023-05-09T08:59:19.198Z,101278.38
2023-05-09T09:03:21.772Z,101274.42
2023-05-09T09:07:26.796Z,101279.77
2023-05-09T09:11:30.249Z,101272.11
2023-05-09T09:15:37.149Z,101276.69
2023-05-09T09:19:43.106Z,101275.59
2023-05-09T09:23:49.911Z,101274.14
2023-05-09T09:27:51.816Z,101275.02
2023-05-09T09:31:56.179Z,101267.94
2023-05-09T09:35:59.248Z,101258.79
2023-05-09T09:40:02.504Z,101263.41
2023-05-09T09:44:11.623Z,101268.27
2023-05-09T09:48:13.652Z,101263.54
2023-05-09T09:52:26.626Z,101256.27
2023-05-09T09:56:42.698Z,101251.55
2023-05-09T10:00:45.716Z,101255.51
2023-05-09T10:04:47.865Z,101251.83
2023-05-09T10:08:49.965Z,101246.45
2023-05-09T10:12:55.908Z,101253.58
2023-05-09T10:16:58.797Z,101247.48
2023-05-09T10:21:02.836Z,101246.86
2023-05-09T10:25:12.419Z,101239.77
2023-05-09T10:29:22.255Z,101235.88
2023-05-09T10:33:30.774Z,101231.80
2023-05-09T10:37:33.701Z,101221.17
2023-05-09T10:41:37.197Z,101221.95
2023-05-09T10:45:40.411Z,101215.84
2023-05-09T10:49:44.370Z,101207.83
2023-05-09T10:53:50.592Z,101207.16
2023-05-09T10:57:54.908Z,101199.31
2023-05-09T11:02:00.649Z,101191.70
2023-05-09T11:06:02.698Z,101196.20
2023-05-09T11:10:19.137Z,101193.43
2023-05-09T11:14:31.894Z,101180.66
2023-05-09T11:18:33.786Z,101186.49
2023-05-09T11:22:44.108Z,101177.88
2023-05-09T11:26:47.982Z,101179.98
2023-05-09T11:30:50.821Z,101168.27
2023-05-09T11:35:05.943Z,101161.77
2023-05-09T11:39:10.160Z,101150.92
2023-05-09T11:43:12.510Z,101141.55
2023-05-09T11:47:16.399Z,101136.90
2023-05-09T11:51:18.966Z,101136.18
2023-05-09T11:55:22.254Z,101133.84
2023-05-09T11:59:24.202Z,101126.85
2023-05-09T12:03:26.999Z,101129.00
2023-05-09T12:07:30.254Z,101127.04
2023-05-09T12:11:32.272Z,101119.22
2023-05-09T12:15:38.386Z,101114.80
2023-05-09T12:19:40.361Z,101112.55
2023-05-09T12:23:42.346Z,101104.60
2023-05-09T12:27:44.345Z,101093.04
2023-05-09T12:31:46.656Z,101077.83
2023-05-09T12:36:10.627Z,101077.90
2023-05-09T12:40:14.929Z,101077.48
2023-05-09T12:44:24.545Z,101080.36
2023-05-09T12:48:26.980Z,101067.55
2023-05-09T12:52:41.757Z,101059.89
2023-05-09T12:56:56.356Z,101054.92
2023-05-09T13:00:59.334Z,101044.88
2023-05-09T13:05:05.083Z,101046.35
2023-05-09T13:09:07.712Z,101045.12
2023-05-09T13:13:16.048Z,101039.55
2023-05-09T13:17:17.960Z,101032.02
2023-05-09T13:21:20.549Z,101029.33
2023-05-09T13:25:22.542Z,101025.77
2023-05-09T13:29:24.474Z,101019.55
2023-05-09T13:33:27.142Z,101017.22
2023-05-09T13:37:29.088Z,101009.84
2023-05-09T13:41:33.030Z,101004.33
2023-05-09T13:45:34.892Z,101003.16
2023-05-09T13:49:37.874Z,101004.64
2023-05-09T13:53:40.063Z,100995.17
2023-05-09T13:57:42.745Z,100985.08
2023-05-09T14:01:44.955Z,100979.52
2023-05-09T14:05:48.029Z,100977.38
2023-05-09T14:09:53.987Z,100976.02
2023-05-09T14:14:01.057Z,100969.77
2023-05-09T14:18:03.068Z,100968.58
2023-05-09T14:22:05.045Z,100967.27
2023-05-09T14:26:07.842Z,100963.98
2023-05-09T14:30:10.199Z,100964.49
2023-05-09T14:34:12.137Z,100960.70
2023-05-09T14:38:14.142Z,100952.91
2023-05-09T14:42:16.243Z,100958.92
2023-05-09T14:46:18.326Z,100951.73
2023-05-09T14:50:21.350Z,100947.91
2023-05-09T14:54:23.656Z,100949.57
2023-05-09T14:58:25.877Z,100947.19
2023-05-09T15:02:27.816Z,100942.83
2023-05-09T15:06:30.475Z,100937.95
2023-05-09T15:10:32.917Z,100932.92
2023-05-09T15:14:34.825Z,100923.77
2023-05-09T15:18:36.721Z,100919.20
2023-05-09T15:22:39.169Z,100916.19
2023-05-09T15:26:41.113Z,100907.05
2023-05-09T15:30:44.853Z,100902.53
2023-05-09T15:34:47.108Z,100897.84
2023-05-09T15:38:49.762Z,100898.06
2023-05-09T15:42:51.918Z,100896.02
2023-05-09T15:46:54.959Z,100892.76
2023-05-09T15:50:56.885Z,100885.60
2023-05-09T15:54:59.598Z,100882.25
2023-05-09T15:59:02.229Z,100884.23
2023-05-09T16:03:04.227Z,100886.69
2023-05-09T16:07:06.325Z,100882.40
2023-05-09T16:11:09.817Z,100880.73
2023-05-09T16:15:11.879Z,100876.95
2023-05-09T16:19:13.812Z,100873.11
2023-05-09T16:23:15.807Z,100870.48
2023-05-09T16:27:17.659Z,100867.48
2023-05-09T16:31:20.344Z,100861.36
2023-05-09T16:35:22.579Z,100855.73
2023-05-09T16:39:27.758Z,100854.35
2023-05-09T16:43:30.311Z,100852.38
2023-05-09T16:47:32.365Z,100847.92
2023-05-09T16:51:35.624Z,100842.27
2023-05-09T16:55:37.782Z,100845.55
2023-05-09T16:59:40.095Z,100841.59
2023-05-09T17:03:42.739Z,100838.48
2023-05-09T17:07:44.833Z,100838.75
2023-05-09T17:11:47.788Z,100836.84
2023-05-09T17:15:52.224Z,100834.76
2023-05-09T17:19:54.220Z,100829.32
2023-05-09T17:23:56.210Z,100829.41
2023-05-09T17:27:58.286Z,100830.11
2023-05-09T17:32:00.988Z,100837.01
2023-05-09T17:36:03.239Z,100833.42
2023-05-09T17:40:07.578Z,100826.86
2023-05-09T17:44:10.703Z,100829.06
2023-05-09T17:48:13.115Z,100827.27
2023-05-09T17:52:15.072Z,100826.30
2023-05-09T17:56:16.989Z,100827.73
2023-05-09T18:00:19.225Z,100829.66
2023-05-09T18:04:21.405Z,100832.81
2023-05-09T18:08:23.312Z,100827.58
2023-05-09T18:12:28.380Z,100830.46
2023-05-09T18:16:30.427Z,100832.17
2023-05-09T18:20:33.293Z,100839.86
2023-05-09T18:24:36.256Z,100843.46
2023-05-09T18:28:40.923Z,100843.85
2023-05-09T18:32:42.874Z,100835.70
2023-05-09T18:36:44.804Z,100836.27
2023-05-09T18:40:47.769Z,100841.05
2023-05-09T18:44:49.932Z,100839.08
2023-05-09T18:48:52.232Z,100840.94
2023-05-09T18:52:54.409Z,100841.59
2023-05-09T18:56:58.063Z,100838.88
2023-05-09T19:01:01.225Z,100844.06
2023-05-09T19:05:07.608Z,100844.27
2023-05-09T19:09:09.439Z,100844.36
2023-05-09T19:13:13.997Z,100843.26
2023-05-09T19:17:17.441Z,100835.44
2023-05-09T19:25:39.438Z,100836.61
2023-05-09T19:29:41.864Z,100837.94
2023-05-09T19:33:44.967Z,100836.44
2023-05-09T19:37:46.971Z,100834.52
2023-05-09T19:41:49.020Z,100826.02
2023-05-09T19:45:51.331Z,100821.48
2023-05-09T19:49:53.439Z,100823.80
2023-05-09T19:53:55.697Z,100821.74
2023-05-09T19:57:57.609Z,100824.05
2023-05-09T20:01:59.488Z,100823.89
2023-05-09T20:10:21.240Z,100823.98
2023-05-09T20:14:23.300Z,100820.95
2023-05-09T20:18:26.503Z,100824.09
2023-05-09T20:22:28.621Z,100819.52
2023-05-09T20:26:30.510Z,100820.95
2023-05-09T20:30:32.890Z,100819.99
2023-05-09T20:34:34.854Z,100819.21
2023-05-09T20:38:36.694Z,100817.27
2023-05-09T20:42:38.756Z,100814.63
2023-05-09T20:46:41.141Z,100813.33
2023-05-09T20:50:43.382Z,100813.30
2023-05-09T20:54:48.395Z,100809.99
2023-05-09T20:58:50.254Z,100804.69
2023-05-09T21:02:57.613Z,100800.74
2023-05-09T21:07:00.563Z,100804.02
2023-05-09T21:11:02.427Z,100806.21
2023-05-09T21:15:04.898Z,100799.40
2023-05-09T21:19:08.264Z,100798.48
2023-05-09T21:23:10.213Z,100805.52
2023-05-09T21:27:12.105Z,100805.98
2023-05-09T21:31:14.323Z,100808.27
2023-05-09T21:35:16.496Z,100805.55
2023-05-09T21:39:18.319Z,100799.73
2023-05-09T21:43:20.366Z,100800.44
2023-05-09T21:47:22.381Z,100801.71
2023-05-09T21:51:24.511Z,100801.98
2023-05-09T21:55:27.012Z,100803.77
2023-05-09T21:59:28.825Z,100803.75
2023-05-09T22:03:30.951Z,100802.41
2023-05-09T22:07:32.964Z,100807.09
2023-05-09T22:11:34.933Z,100807.24
2023-05-09T22:15:36.779Z,100807.06
2023-05-09T22:19:38.669Z,100805.21
2023-05-09T22:23:40.500Z,100811.65
2023-05-09T22:27:42.400Z,100810.69
2023-05-09T22:31:44.372Z,100804.73
2023-05-09T22:35:46.580Z,100798.76
2023-05-09T22:39:48.464Z,100795.64
2023-05-09T22:43:50.471Z,100790.22
2023-05-09T22:47:52.373Z,100789.64
2023-05-09T22:51:54.312Z,100788.91
2023-05-09T22:55:56.766Z,100782.83
2023-05-09T22:59:58.662Z,100775.77
2023-05-09T23:04:00.647Z,100771.11
2023-05-09T23:08:02.730Z,100773.09
2023-05-09T23:12:05.085Z,100766.20
2023-05-09T23:16:07.020Z,100767.20
2023-05-09T23:20:09.325Z,100768.56
2023-05-09T23:24:11.181Z,100770.79
2023-05-09T23:28:13.046Z,100773.23
2023-05-09T23:32:14.990Z,100773.64
2023-05-09T23:36:16.845Z,100769.09
2023-05-09T23:40:19.091Z,100767.91
2023-05-09T23:44:20.989Z,100767.20
2023-05-09T23:48:23.405Z,100764.23
2023-05-09T23:52:25.453Z,100759.39
2023-05-09T23:56:27.362Z,100758.91
